Time;durP1;ratioP1;P1;durP2;ratioP2;P2;SDS_P1;SDS_P2;PMS_P1;PMS_P2;Temp;Humidity;BMP_temperature;BMP_pressure;BME280_temperature;BME280_humidity;BME280_pressure;Samples;Min_cycle;Max_cycle;Signal;HPM_P1;HPM_P2
2022/07/02 00:02:21;;;;;;;0.00;0.00;;;;;;;;;;4925849;29;20028;-61
2022/07/02 00:04:51;;;;;;;0.00;0.00;;;;;;;;;;4928468;29;20028;-61
2022/07/02 00:07:16;;;;;;;0.00;0.00;;;;;;;;;;4927749;29;20533;-59
2022/07/02 00:09:42;;;;;;;0.00;0.00;;;;;;;;;;4924140;29;20172;-58
2022/07/02 00:12:09;;;;;;;0.10;0.10;;;;;;;;;;4930707;29;20050;-60
2022/07/02 00:14:35;;;;;;;0.00;0.00;;;;;;;;;;4924854;29;20032;-60
2022/07/02 00:17:01;;;;;;;0.00;0.00;;;;;;;;;;4922677;29;20055;-60
2022/07/02 00:19:27;;;;;;;0.13;0.13;;;;;;;;;;4920182;29;20086;-60
2022/07/02 00:21:53;;;;;;;0.00;0.00;;;;;;;;;;4926809;29;20051;-58
2022/07/02 00:24:18;;;;;;;0.00;0.00;;;;;;;;;;4922936;29;20556;-59
2022/07/02 00:26:48;;;;;;;0.00;0.00;;;;;;;;;;4924421;29;20064;-59
2022/07/02 00:29:13;;;;;;;13.25;1.02;;;;;;;;;;4926902;29;20062;-59
2022/07/02 00:31:39;;;;;;;0.10;0.10;;;;;;;;;;4924668;29;20067;-60
2022/07/02 00:34:08;;;;;;;0.00;0.00;;;;;;;;;;4927052;29;20263;-60
2022/07/02 00:36:33;;;;;;;0.00;0.00;;;;;;;;;;4928591;29;20552;-59
2022/07/02 00:39:00;;;;;;;0.00;0.00;;;;;;;;;;4932330;29;20023;-62
2022/07/02 00:41:26;;;;;;;0.00;0.00;;;;;;;;;;4930906;29;20031;-61
2022/07/02 00:43:52;;;;;;;0.00;0.00;;;;;;;;;;4931082;29;20028;-60
2022/07/02 00:46:17;;;;;;;0.00;0.00;;;;;;;;;;4938714;29;20103;-62
2022/07/02 00:48:43;;;;;;;0.00;0.00;;;;;;;;;;4929496;29;20031;-60
2022/07/02 00:51:09;;;;;;;0.00;0.00;;;;;;;;;;4934182;29;20464;-60
2022/07/02 00:53:34;;;;;;;0.65;0.65;;;;;;;;;;4928243;29;20052;-61
2022/07/02 00:55:59;;;;;;;0.00;0.00;;;;;;;;;;4929207;29;20027;-61
2022/07/02 00:58:25;;;;;;;0.00;0.00;;;;;;;;;;4936902;29;20019;-61
2022/07/02 01:00:50;;;;;;;0.00;0.00;;;;;;;;;;4935905;29;20452;-61
2022/07/02 01:03:17;;;;;;;0.00;0.00;;;;;;;;;;4935061;29;20037;-61
2022/07/02 01:05:43;;;;;;;0.00;0.00;;;;;;;;;;4930438;29;20119;-61
2022/07/02 01:10:52;;;;;;;0.00;0.00;;;;;;;;;;4932437;29;20378;-61
2022/07/02 01:13:18;;;;;;;0.00;0.00;;;;;;;;;;4925163;29;20028;-60
2022/07/02 01:15:43;;;;;;;0.00;0.00;;;;;;;;;;4934394;29;20019;-61
2022/07/02 01:18:10;;;;;;;0.00;0.00;;;;;;;;;;4931131;29;20445;-61
2022/07/02 01:20:35;;;;;;;0.00;0.00;;;;;;;;;;4927266;29;20025;-60
2022/07/02 01:23:01;;;;;;;0.00;0.00;;;;;;;;;;4927155;29;20031;-61
2022/07/02 01:25:26;;;;;;;0.00;0.00;;;;;;;;;;4933459;29;20110;-61
2022/07/02 01:27:52;;;;;;;0.00;0.00;;;;;;;;;;4935592;29;20086;-61
2022/07/02 01:30:18;;;;;;;0.00;0.00;;;;;;;;;;4925871;29;20028;-60
2022/07/02 01:32:43;;;;;;;0.00;0.00;;;;;;;;;;4929723;29;20035;-62
2022/07/02 01:35:09;;;;;;;0.00;0.00;;;;;;;;;;4928848;29;20469;-61
2022/07/02 01:37:36;;;;;;;0.70;0.70;;;;;;;;;;4925887;29;20373;-63
2022/07/02 01:40:02;;;;;;;0.00;0.00;;;;;;;;;;4925730;29;20024;-64
2022/07/02 01:42:27;;;;;;;0.00;0.00;;;;;;;;;;4922787;29;20028;-64
2022/07/02 01:44:52;;;;;;;0.00;0.00;;;;;;;;;;4930339;29;20106;-62
2022/07/02 01:47:17;;;;;;;0.00;0.00;;;;;;;;;;4927827;29;20020;-63
2022/07/02 01:49:43;;;;;;;0.00;0.00;;;;;;;;;;4933898;29;20083;-61
2022/07/02 01:52:08;;;;;;;0.00;0.00;;;;;;;;;;4932633;29;20035;-61
2022/07/02 01:54:33;;;;;;;0.00;0.00;;;;;;;;;;4935183;29;20056;-61
2022/07/02 01:57:00;;;;;;;0.00;0.00;;;;;;;;;;4931268;29;20507;-59
2022/07/02 01:59:25;;;;;;;0.00;0.00;;;;;;;;;;4929131;29;20490;-61
2022/07/02 02:01:50;;;;;;;0.00;0.00;;;;;;;;;;4936836;29;20038;-61
2022/07/02 02:04:16;;;;;;;0.00;0.00;;;;;;;;;;4939935;29;20079;-62
2022/07/02 02:06:41;;;;;;;0.00;0.00;;;;;;;;;;4945694;29;20393;-61
2022/07/02 02:09:06;;;;;;;0.00;0.00;;;;;;;;;;4929373;29;20027;-61
2022/07/02 02:11:32;;;;;;;0.00;0.00;;;;;;;;;;4929625;29;20036;-60
2022/07/02 02:14:00;;;;;;;0.00;0.00;;;;;;;;;;4926651;29;20055;-61
2022/07/02 02:16:26;;;;;;;0.00;0.00;;;;;;;;;;4943258;29;20024;-61
2022/07/02 02:18:51;;;;;;;0.00;0.00;;;;;;;;;;4941025;29;20094;-61
2022/07/02 02:21:17;;;;;;;0.00;0.00;;;;;;;;;;4943208;29;20026;-61
2022/07/02 02:23:42;;;;;;;0.05;0.05;;;;;;;;;;4942742;29;20057;-61
2022/07/02 02:26:07;;;;;;;0.00;0.00;;;;;;;;;;4946353;29;20019;-61
2022/07/02 02:28:32;;;;;;;0.00;0.00;;;;;;;;;;4939834;29;20023;-59
2022/07/02 02:30:59;;;;;;;0.60;0.60;;;;;;;;;;4926256;29;20052;-59
2022/07/02 02:33:24;;;;;;;0.00;0.00;;;;;;;;;;4932748;29;20074;-62
2022/07/02 02:35:49;;;;;;;0.00;0.00;;;;;;;;;;4928730;29;20024;-61
2022/07/02 02:38:14;;;;;;;0.00;0.00;;;;;;;;;;4929916;29;20111;-61
2022/07/02 02:40:40;;;;;;;0.00;0.00;;;;;;;;;;4929888;29;20422;-61
2022/07/02 02:43:05;;;;;;;0.10;0.10;;;;;;;;;;4930433;29;20030;-61
2022/07/02 02:45:30;;;;;;;0.00;0.00;;;;;;;;;;4928417;29;20027;-61
2022/07/02 02:47:55;;;;;;;0.00;0.00;;;;;;;;;;4926039;29;20078;-62
2022/07/02 02:50:21;;;;;;;0.00;0.00;;;;;;;;;;4932949;29;20526;-62
2022/07/02 02:52:46;;;;;;;0.00;0.00;;;;;;;;;;4926202;29;20031;-61
2022/07/02 02:55:11;;;;;;;0.00;0.00;;;;;;;;;;4928570;29;20028;-60
2022/07/02 02:57:36;;;;;;;0.00;0.00;;;;;;;;;;4929200;29;20458;-60
2022/07/02 03:00:03;;;;;;;0.00;0.00;;;;;;;;;;4928611;29;20362;-61
2022/07/02 03:02:28;;;;;;;0.10;0.10;;;;;;;;;;4923878;29;20107;-60
2022/07/02 03:04:53;;;;;;;0.00;0.00;;;;;;;;;;4921827;29;20452;-61
2022/07/02 03:07:18;;;;;;;0.00;0.00;;;;;;;;;;4910787;29;20063;-60
2022/07/02 03:09:44;;;;;;;0.00;0.00;;;;;;;;;;4923745;29;20385;-60
2022/07/02 03:12:09;;;;;;;0.00;0.00;;;;;;;;;;4921027;29;20036;-60
2022/07/02 03:14:35;;;;;;;0.00;0.00;;;;;;;;;;4928109;29;20024;-61
2022/07/02 03:17:00;;;;;;;0.00;0.00;;;;;;;;;;4922159;29;20032;-61
2022/07/02 03:19:25;;;;;;;0.00;0.00;;;;;;;;;;4926645;29;20051;-61
2022/07/02 03:21:50;;;;;;;0.00;0.00;;;;;;;;;;4926457;29;20040;-61
2022/07/02 03:24:16;;;;;;;0.00;0.00;;;;;;;;;;4934387;29;20036;-62
2022/07/02 03:26:41;;;;;;;0.00;0.00;;;;;;;;;;4931699;29;20500;-59
2022/07/02 03:29:06;;;;;;;0.00;0.00;;;;;;;;;;4931940;29;20028;-58
2022/07/02 03:31:32;;;;;;;0.00;0.00;;;;;;;;;;4931781;29;20141;-60
2022/07/02 03:33:58;;;;;;;0.00;0.00;;;;;;;;;;4931785;29;20103;-59
2022/07/02 03:36:23;;;;;;;0.00;0.00;;;;;;;;;;4925022;29;20434;-58
2022/07/02 03:38:48;;;;;;;0.00;0.00;;;;;;;;;;4926867;29;20050;-58
2022/07/02 03:41:14;;;;;;;0.00;0.00;;;;;;;;;;4927310;29;20028;-59
2022/07/02 03:43:39;;;;;;;0.00;0.00;;;;;;;;;;4935535;29;20031;-60
2022/07/02 03:46:04;;;;;;;0.00;0.00;;;;;;;;;;4931775;29;20027;-60
2022/07/02 03:48:30;;;;;;;0.10;0.10;;;;;;;;;;4927448;29;20035;-60
2022/07/02 03:50:55;;;;;;;0.00;0.00;;;;;;;;;;4928086;29;20032;-60
2022/07/02 03:53:20;;;;;;;0.03;0.03;;;;;;;;;;4929918;29;20023;-60
2022/07/02 03:55:45;;;;;;;0.00;0.00;;;;;;;;;;4930674;29;20339;-59
2022/07/02 03:58:10;;;;;;;0.00;0.00;;;;;;;;;;4928135;29;20595;-59
2022/07/02 04:00:36;;;;;;;0.00;0.00;;;;;;;;;;4925483;29;20028;-60
2022/07/02 04:03:01;;;;;;;0.00;0.00;;;;;;;;;;4927996;29;20031;-59
2022/07/02 04:05:26;;;;;;;0.00;0.00;;;;;;;;;;4931169;29;20039;-60
2022/07/02 04:07:52;;;;;;;0.00;0.00;;;;;;;;;;4931711;29;20036;-58
2022/07/02 04:10:17;;;;;;;0.00;0.00;;;;;;;;;;4923716;29;20477;-59
2022/07/02 04:12:42;;;;;;;0.00;0.00;;;;;;;;;;4924320;29;20103;-59
2022/07/02 04:15:08;;;;;;;0.00;0.00;;;;;;;;;;4919488;29;20015;-58
2022/07/02 04:17:33;;;;;;;0.00;0.00;;;;;;;;;;4907498;29;20028;-59
2022/07/02 04:19:58;;;;;;;0.00;0.00;;;;;;;;;;4922897;29;20107;-59
2022/07/02 04:22:23;;;;;;;0.00;0.00;;;;;;;;;;4928352;29;20023;-62
2022/07/02 04:24:48;;;;;;;0.00;0.00;;;;;;;;;;4931176;29;20032;-62
2022/07/02 04:27:14;;;;;;;0.00;0.00;;;;;;;;;;4928197;29;20042;-61
2022/07/02 04:29:40;;;;;;;0.00;0.00;;;;;;;;;;4931814;29;20032;-62
2022/07/02 04:32:05;;;;;;;0.00;0.00;;;;;;;;;;4936942;29;20046;-61
2022/07/02 04:34:30;;;;;;;0.08;0.08;;;;;;;;;;4938076;29;20022;-63
2022/07/02 04:36:56;;;;;;;0.10;0.10;;;;;;;;;;4939316;29;20024;-60
2022/07/02 04:39:21;;;;;;;0.00;0.00;;;;;;;;;;4921585;29;20047;-60
2022/07/02 04:41:46;;;;;;;0.00;0.00;;;;;;;;;;4925956;29;20386;-60
2022/07/02 04:44:12;;;;;;;0.00;0.00;;;;;;;;;;4923176;29;20035;-60
2022/07/02 04:46:37;;;;;;;7.18;1.40;;;;;;;;;;4935169;29;20031;-64
2022/07/02 04:49:02;;;;;;;0.00;0.00;;;;;;;;;;4930884;29;20020;-64
2022/07/02 04:51:27;;;;;;;0.00;0.00;;;;;;;;;;4934779;29;20032;-64
2022/07/02 04:53:53;;;;;;;0.00;0.00;;;;;;;;;;4929678;29;20456;-61
2022/07/02 04:56:18;;;;;;;0.00;0.00;;;;;;;;;;4922775;29;20028;-61
2022/07/02 04:58:43;;;;;;;0.65;0.65;;;;;;;;;;4930243;29;20462;-61
2022/07/02 05:01:08;;;;;;;0.00;0.00;;;;;;;;;;4925527;29;20588;-61
2022/07/02 05:03:34;;;;;;;0.00;0.00;;;;;;;;;;4927356;29;20099;-64
2022/07/02 05:05:59;;;;;;;0.00;0.00;;;;;;;;;;4912227;29;20031;-63
2022/07/02 05:08:26;;;;;;;0.00;0.00;;;;;;;;;;4929749;29;20027;-61
2022/07/02 05:10:52;;;;;;;0.00;0.00;;;;;;;;;;4927646;29;20058;-62
2022/07/02 05:13:17;;;;;;;0.00;0.00;;;;;;;;;;4928312;29;20458;-60
2022/07/02 05:15:43;;;;;;;0.00;0.00;;;;;;;;;;4932317;29;20087;-67
2022/07/02 05:18:09;;;;;;;0.00;0.00;;;;;;;;;;4936395;29;20304;-67
2022/07/02 05:20:34;;;;;;;0.00;0.00;;;;;;;;;;4936536;29;20035;-65
2022/07/02 05:22:59;;;;;;;0.00;0.00;;;;;;;;;;4933969;29;20034;-60
2022/07/02 05:25:24;;;;;;;0.00;0.00;;;;;;;;;;4937753;29;20408;-60
2022/07/02 05:27:50;;;;;;;0.00;0.00;;;;;;;;;;4933279;29;20042;-65
2022/07/02 05:30:15;;;;;;;0.00;0.00;;;;;;;;;;4931078;29;20039;-64
2022/07/02 05:32:40;;;;;;;0.00;0.00;;;;;;;;;;4936176;29;20059;-63
2022/07/02 05:35:05;;;;;;;0.10;0.10;;;;;;;;;;4933211;29;20019;-64
2022/07/02 05:37:31;;;;;;;0.00;0.00;;;;;;;;;;4934289;29;20028;-61
2022/07/02 05:39:56;;;;;;;0.00;0.00;;;;;;;;;;4936301;29;20063;-61
2022/07/02 05:42:21;;;;;;;0.00;0.00;;;;;;;;;;4936481;29;20426;-60
2022/07/02 05:44:46;;;;;;;0.00;0.00;;;;;;;;;;4937990;28;20030;-61
2022/07/02 05:47:12;;;;;;;0.00;0.00;;;;;;;;;;4936703;29;20028;-63
2022/07/02 05:49:37;;;;;;;0.00;0.00;;;;;;;;;;4934751;29;20032;-63
2022/07/02 05:52:02;;;;;;;0.00;0.00;;;;;;;;;;4936798;29;20035;-65
2022/07/02 05:54:27;;;;;;;0.00;0.00;;;;;;;;;;4931265;29;20034;-65
2022/07/02 05:56:53;;;;;;;0.00;0.00;;;;;;;;;;4932330;29;20028;-64
2022/07/02 05:59:18;;;;;;;0.00;0.00;;;;;;;;;;4931654;29;20392;-66
2022/07/02 06:01:43;;;;;;;0.00;0.00;;;;;;;;;;4931232;29;20378;-68
2022/07/02 06:04:08;;;;;;;0.00;0.00;;;;;;;;;;4943143;29;20387;-68
2022/07/02 06:09:17;;;;;;;0.00;0.00;;;;;;;;;;4936548;29;20381;-67
2022/07/02 06:11:42;;;;;;;0.00;0.00;;;;;;;;;;4930565;29;20052;-66
2022/07/02 06:14:08;;;;;;;0.30;0.10;;;;;;;;;;4929185;29;20406;-66
2022/07/02 06:16:33;;;;;;;1.35;1.35;;;;;;;;;;4935014;29;20043;-64
2022/07/02 06:18:58;;;;;;;0.10;0.10;;;;;;;;;;4936520;29;20079;-62
2022/07/02 06:21:23;;;;;;;0.00;0.00;;;;;;;;;;4932787;29;20024;-62
2022/07/02 06:23:49;;;;;;;0.00;0.00;;;;;;;;;;4934185;29;20470;-62
2022/07/02 06:26:14;;;;;;;0.00;0.00;;;;;;;;;;4928613;29;20393;-63
2022/07/02 06:28:39;;;;;;;0.00;0.00;;;;;;;;;;4928834;29;20071;-62
2022/07/02 06:31:04;;;;;;;0.10;0.10;;;;;;;;;;4924184;29;20638;-62
2022/07/02 06:33:29;;;;;;;0.00;0.00;;;;;;;;;;4926557;29;20295;-62
2022/07/02 06:35:55;;;;;;;0.00;0.00;;;;;;;;;;4927592;29;20019;-62
2022/07/02 06:38:20;;;;;;;0.03;0.03;;;;;;;;;;4926591;29;20043;-62
2022/07/02 06:40:45;;;;;;;0.30;0.25;;;;;;;;;;4909046;29;20153;-62
2022/07/02 06:43:10;;;;;;;0.00;0.00;;;;;;;;;;4931238;29;20421;-62
2022/07/02 06:45:36;;;;;;;0.30;0.30;;;;;;;;;;4929004;29;20368;-62
2022/07/02 06:48:01;;;;;;;0.00;0.00;;;;;;;;;;4929767;29;20035;-63
2022/07/02 06:50:26;;;;;;;0.00;0.00;;;;;;;;;;4929101;29;20358;-62
2022/07/02 06:52:51;;;;;;;0.00;0.00;;;;;;;;;;4927716;29;20489;-63
2022/07/02 06:55:20;;;;;;;0.00;0.00;;;;;;;;;;4928048;29;20167;-63
2022/07/02 06:57:45;;;;;;;0.00;0.00;;;;;;;;;;4929831;29;20267;-60
2022/07/02 07:00:11;;;;;;;0.00;0.00;;;;;;;;;;4930158;29;20055;-66
2022/07/02 07:02:36;;;;;;;0.32;0.32;;;;;;;;;;4911917;29;20076;-62
2022/07/02 07:05:01;;;;;;;0.00;0.00;;;;;;;;;;4928179;29;20031;-62
2022/07/02 07:07:28;;;;;;;0.00;0.00;;;;;;;;;;4926283;29;20071;-61
2022/07/02 07:09:54;;;;;;;0.00;0.00;;;;;;;;;;4930687;29;20389;-62
2022/07/02 07:12:19;;;;;;;0.00;0.00;;;;;;;;;;4926722;29;20038;-61
2022/07/02 07:14:45;;;;;;;0.00;0.00;;;;;;;;;;4929276;29;20024;-61
2022/07/02 07:17:10;;;;;;;0.00;0.00;;;;;;;;;;4931674;29;20120;-61
2022/07/02 07:19:35;;;;;;;0.00;0.00;;;;;;;;;;4929771;29;20485;-61
2022/07/02 07:22:01;;;;;;;0.00;0.00;;;;;;;;;;4926829;29;20071;-62
2022/07/02 07:24:26;;;;;;;0.00;0.00;;;;;;;;;;4927609;29;20035;-63
2022/07/02 07:26:51;;;;;;;0.00;0.00;;;;;;;;;;4930873;29;20026;-62
2022/07/02 07:29:16;;;;;;;0.00;0.00;;;;;;;;;;4910111;29;20430;-62
2022/07/02 07:31:42;;;;;;;0.00;0.00;;;;;;;;;;4927113;29;20103;-62
2022/07/02 07:34:09;;;;;;;1.00;0.55;;;;;;;;;;4928099;29;20425;-62
2022/07/02 07:36:34;;;;;;;0.00;0.00;;;;;;;;;;4926098;29;20355;-62
2022/07/02 07:39:01;;;;;;;0.00;0.00;;;;;;;;;;4925676;29;20024;-62
2022/07/02 07:41:27;;;;;;;0.00;0.00;;;;;;;;;;4926365;29;20015;-61
2022/07/02 07:43:52;;;;;;;0.00;0.00;;;;;;;;;;4929866;29;20115;-62
2022/07/02 07:46:17;;;;;;;0.00;0.00;;;;;;;;;;4927209;29;20302;-62
2022/07/02 07:48:43;;;;;;;0.00;0.00;;;;;;;;;;4929893;29;20752;-62
2022/07/02 07:51:08;;;;;;;0.00;0.00;;;;;;;;;;4929692;29;20370;-62
2022/07/02 07:53:33;;;;;;;0.00;0.00;;;;;;;;;;4931995;29;20055;-62
2022/07/02 07:55:59;;;;;;;0.00;0.00;;;;;;;;;;4932215;29;20059;-62
2022/07/02 07:58:24;;;;;;;0.00;0.00;;;;;;;;;;4929409;29;20373;-62
2022/07/02 08:00:50;;;;;;;0.00;0.00;;;;;;;;;;4928185;29;20040;-62
2022/07/02 08:03:17;;;;;;;0.00;0.00;;;;;;;;;;4909626;29;20083;-62
2022/07/02 08:05:42;;;;;;;0.00;0.00;;;;;;;;;;4931826;29;20274;-62
2022/07/02 08:08:07;;;;;;;0.00;0.00;;;;;;;;;;4929920;29;20102;-62
2022/07/02 08:10:33;;;;;;;0.00;0.00;;;;;;;;;;4931540;29;20067;-61
2022/07/02 08:12:58;;;;;;;0.00;0.00;;;;;;;;;;4927509;29;20355;-62
2022/07/02 08:15:24;;;;;;;0.00;0.00;;;;;;;;;;4929257;29;20019;-61
2022/07/02 08:17:49;;;;;;;0.00;0.00;;;;;;;;;;4927949;29;20259;-61
2022/07/02 08:20:15;;;;;;;0.10;0.10;;;;;;;;;;4926657;29;20127;-61
2022/07/02 08:22:40;;;;;;;0.00;0.00;;;;;;;;;;4929974;29;20030;-62
2022/07/02 08:25:06;;;;;;;0.00;0.00;;;;;;;;;;4926117;29;20027;-61
2022/07/02 08:27:31;;;;;;;0.00;0.00;;;;;;;;;;4928706;29;20472;-61
2022/07/02 08:29:57;;;;;;;0.00;0.00;;;;;;;;;;4928627;29;20039;-61
2022/07/02 08:32:22;;;;;;;0.33;0.33;;;;;;;;;;4924823;29;20059;-61
2022/07/02 08:34:47;;;;;;;0.00;0.00;;;;;;;;;;4925701;29;20348;-60
2022/07/02 08:37:13;;;;;;;0.00;0.00;;;;;;;;;;4921132;29;20020;-61
2022/07/02 08:39:38;;;;;;;0.00;0.00;;;;;;;;;;4912504;29;20031;-61
2022/07/02 08:42:05;;;;;;;0.00;0.00;;;;;;;;;;4928044;29;20027;-62
2022/07/02 08:44:32;;;;;;;0.00;0.00;;;;;;;;;;4923591;29;20279;-62
2022/07/02 08:46:58;;;;;;;0.00;0.00;;;;;;;;;;4926017;29;20019;-61
2022/07/02 08:49:24;;;;;;;0.00;0.00;;;;;;;;;;4925946;29;20035;-62
2022/07/02 08:52:06;;;;;;;0.00;0.00;;;;;;;;;;4922531;29;20430;-62
2022/07/02 08:54:31;;;;;;;0.00;0.00;;;;;;;;;;4918486;29;20039;-63
2022/07/02 08:56:58;;;;;;;0.00;0.00;;;;;;;;;;4924963;29;20028;-61
2022/07/02 08:59:24;;;;;;;0.00;0.00;;;;;;;;;;4926008;29;20111;-60
2022/07/02 09:01:50;;;;;;;0.00;0.00;;;;;;;;;;4909626;29;20055;-61
2022/07/02 09:04:16;;;;;;;0.00;0.00;;;;;;;;;;4928060;29;20046;-61
2022/07/02 09:06:41;;;;;;;0.00;0.00;;;;;;;;;;4927842;29;20019;-60
2022/07/02 09:09:08;;;;;;;0.00;0.00;;;;;;;;;;4921148;29;20389;-61
2022/07/02 09:11:33;;;;;;;0.00;0.00;;;;;;;;;;4929078;29;20024;-60
2022/07/02 09:13:58;;;;;;;0.00;0.00;;;;;;;;;;4921683;29;20115;-61
2022/07/02 09:16:24;;;;;;;0.00;0.00;;;;;;;;;;4925833;29;20050;-61
2022/07/02 09:18:49;;;;;;;0.00;0.00;;;;;;;;;;4918113;29;20052;-61
2022/07/02 09:21:14;;;;;;;0.00;0.00;;;;;;;;;;4925440;29;20046;-61
2022/07/02 09:23:47;;;;;;;0.00;0.00;;;;;;;;;;4923267;29;20520;-61
2022/07/02 09:26:19;;;;;;;0.00;0.00;;;;;;;;;;4924868;29;20462;-61
2022/07/02 09:29:04;;;;;;;0.00;0.00;;;;;;;;;;4929650;29;20031;-61
2022/07/02 09:31:30;;;;;;;0.85;0.30;;;;;;;;;;4921392;29;20552;-60
2022/07/02 09:33:56;;;;;;;0.00;0.00;;;;;;;;;;4926158;29;20098;-60
2022/07/02 09:36:21;;;;;;;0.20;0.10;;;;;;;;;;4922029;29;20074;-60
2022/07/02 09:38:48;;;;;;;0.00;0.00;;;;;;;;;;4924320;29;20020;-60
2022/07/02 09:41:14;;;;;;;0.00;0.00;;;;;;;;;;4920680;29;20029;-60
2022/07/02 09:43:40;;;;;;;0.20;0.20;;;;;;;;;;4925533;29;20027;-60
2022/07/02 09:46:15;;;;;;;0.00;0.00;;;;;;;;;;4917846;29;20024;-60
2022/07/02 09:48:41;;;;;;;0.00;0.00;;;;;;;;;;4925245;29;20796;-60
2022/07/02 09:51:06;;;;;;;0.20;0.20;;;;;;;;;;4927087;29;20052;-60
2022/07/02 09:53:32;;;;;;;0.00;0.00;;;;;;;;;;4920930;29;21807;-60
2022/07/02 09:55:57;;;;;;;1.75;1.65;;;;;;;;;;4925678;29;20024;-61
2022/07/02 09:58:24;;;;;;;0.73;0.47;;;;;;;;;;4927813;29;20019;-60
2022/07/02 10:00:49;;;;;;;0.00;0.00;;;;;;;;;;4925863;29;20374;-60
2022/07/02 10:03:14;;;;;;;0.00;0.00;;;;;;;;;;4920579;29;20036;-60
2022/07/02 10:05:44;;;;;;;0.00;0.00;;;;;;;;;;4925605;29;20322;-60
2022/07/02 10:08:10;;;;;;;0.00;0.00;;;;;;;;;;4928276;29;20032;-60
2022/07/02 10:10:38;;;;;;;0.10;0.10;;;;;;;;;;4929429;29;20033;-61
2022/07/02 10:13:04;;;;;;;0.52;0.52;;;;;;;;;;4925398;29;20042;-60
2022/07/02 10:15:31;;;;;;;0.22;0.22;;;;;;;;;;4925607;29;20028;-60
2022/07/02 10:17:58;;;;;;;0.00;0.00;;;;;;;;;;4927754;29;20106;-61
2022/07/02 10:20:23;;;;;;;0.10;0.10;;;;;;;;;;4927120;29;20110;-60
2022/07/02 10:22:49;;;;;;;0.00;0.00;;;;;;;;;;4930366;29;20028;-63
2022/07/02 10:25:14;;;;;;;0.00;0.00;;;;;;;;;;4925352;29;20035;-62
2022/07/02 10:27:40;;;;;;;0.00;0.00;;;;;;;;;;4925002;29;20139;-61
2022/07/02 10:30:06;;;;;;;0.10;0.10;;;;;;;;;;4930666;29;20032;-61
2022/07/02 10:32:46;;;;;;;0.00;0.00;;;;;;;;;;4926301;29;20031;-62
2022/07/02 10:35:12;;;;;;;0.10;0.10;;;;;;;;;;4927868;29;20481;-61
2022/07/02 10:37:38;;;;;;;0.03;0.00;;;;;;;;;;4927861;29;20021;-60
2022/07/02 10:40:04;;;;;;;0.00;0.00;;;;;;;;;;4928298;29;20087;-59
2022/07/02 10:42:46;;;;;;;0.00;0.00;;;;;;;;;;4928751;29;20051;-59
2022/07/02 10:45:14;;;;;;;0.00;0.00;;;;;;;;;;4924779;29;20385;-60
2022/07/02 10:47:51;;;;;;;0.30;0.30;;;;;;;;;;4925658;29;20472;-60
2022/07/02 10:50:17;;;;;;;0.00;0.00;;;;;;;;;;4925726;29;20529;-59
2022/07/02 10:52:49;;;;;;;0.00;0.00;;;;;;;;;;4928347;29;20032;-59
2022/07/02 10:55:28;;;;;;;3.38;3.00;;;;;;;;;;4924961;29;20132;-59
2022/07/02 10:57:56;;;;;;;0.00;0.00;;;;;;;;;;4923709;29;20522;-59
2022/07/02 11:00:40;;;;;;;0.00;0.00;;;;;;;;;;4923325;29;20118;-59
2022/07/02 11:03:19;;;;;;;0.00;0.00;;;;;;;;;;4922767;29;20111;-59
2022/07/02 11:05:51;;;;;;;0.10;0.10;;;;;;;;;;4924295;29;20024;-59
2022/07/02 11:08:29;;;;;;;0.00;0.00;;;;;;;;;;4927085;29;20083;-59
2022/07/02 11:10:54;;;;;;;0.00;0.00;;;;;;;;;;4928681;29;20091;-59
2022/07/02 11:13:19;;;;;;;0.08;0.08;;;;;;;;;;4931390;29;20043;-59
2022/07/02 11:15:45;;;;;;;0.03;0.03;;;;;;;;;;4931971;29;20031;-60
2022/07/02 11:18:11;;;;;;;0.00;0.00;;;;;;;;;;4928945;29;20034;-60
2022/07/02 11:20:36;;;;;;;0.00;0.00;;;;;;;;;;4905874;29;20059;-59
2022/07/02 11:23:02;;;;;;;0.10;0.10;;;;;;;;;;4928802;29;20048;-59
2022/07/02 11:25:31;;;;;;;0.00;0.00;;;;;;;;;;4925338;29;20027;-59
2022/07/02 11:27:56;;;;;;;;;;;;;;;;;;4929374;29;20091;-60
2022/07/02 11:30:29;;;;;;;0.00;0.00;;;;;;;;;;4924681;29;20361;-59
2022/07/02 11:32:54;;;;;;;0.00;0.00;;;;;;;;;;4931764;29;20039;-59
2022/07/02 11:35:20;;;;;;;0.00;0.00;;;;;;;;;;4922687;29;20087;-60
2022/07/02 11:37:45;;;;;;;1.27;0.55;;;;;;;;;;4927157;29;20362;-59
2022/07/02 11:40:17;;;;;;;0.00;0.00;;;;;;;;;;4922637;29;20465;-58
2022/07/02 11:42:42;;;;;;;0.00;0.00;;;;;;;;;;4909196;29;20074;-58
2022/07/02 11:45:08;;;;;;;0.00;0.00;;;;;;;;;;4927316;29;20469;-59
2022/07/02 11:47:41;;;;;;;0.00;0.00;;;;;;;;;;4925119;29;20051;-59
2022/07/02 11:50:06;;;;;;;0.00;0.00;;;;;;;;;;4927610;29;20032;-60
2022/07/02 11:52:32;;;;;;;0.00;0.00;;;;;;;;;;4927455;29;20146;-59
2022/07/02 11:54:57;;;;;;;0.00;0.00;;;;;;;;;;4927579;29;20430;-59
2022/07/02 11:57:31;;;;;;;0.00;0.00;;;;;;;;;;4926234;29;20024;-59
2022/07/02 11:59:56;;;;;;;0.00;0.00;;;;;;;;;;4922349;29;20043;-61
2022/07/02 12:02:21;;;;;;;0.00;0.00;;;;;;;;;;4922990;29;20032;-62
2022/07/02 12:04:47;;;;;;;0.00;0.00;;;;;;;;;;4926420;29;20039;-62
2022/07/02 12:07:13;;;;;;;2.00;0.10;;;;;;;;;;4927075;29;20032;-61
2022/07/02 12:09:39;;;;;;;3.50;0.43;;;;;;;;;;4931013;29;20032;-61
2022/07/02 12:12:04;;;;;;;0.10;0.10;;;;;;;;;;4929739;29;20059;-62
2022/07/02 12:14:30;;;;;;;19.77;10.00;;;;;;;;;;4926004;29;20082;-62
2022/07/02 12:16:55;;;;;;;0.30;0.30;;;;;;;;;;4926005;29;20035;-62
2022/07/02 12:19:24;;;;;;;0.00;0.00;;;;;;;;;;4925213;29;20054;-62
2022/07/02 12:21:50;;;;;;;1.45;1.05;;;;;;;;;;4924081;29;20024;-62
2022/07/02 12:24:21;;;;;;;0.00;0.00;;;;;;;;;;4930884;29;20032;-62
2022/07/02 12:26:51;;;;;;;0.05;0.05;;;;;;;;;;4930346;29;20028;-62
2022/07/02 12:32:05;;;;;;;0.10;0.10;;;;;;;;;;4927188;29;20031;-62
2022/07/02 12:34:37;;;;;;;0.00;0.00;;;;;;;;;;4926357;29;20122;-62
2022/07/02 12:37:02;;;;;;;0.00;0.00;;;;;;;;;;4926974;29;20020;-62
2022/07/02 12:39:40;;;;;;;0.00;0.00;;;;;;;;;;4923934;29;20035;-62
2022/07/02 12:42:12;;;;;;;0.00;0.00;;;;;;;;;;4927181;29;20060;-62
2022/07/02 12:44:37;;;;;;;0.00;0.00;;;;;;;;;;4925690;29;20452;-62
2022/07/02 12:47:03;;;;;;;0.00;0.00;;;;;;;;;;4922792;29;20026;-62
2022/07/02 12:49:28;;;;;;;0.00;0.00;;;;;;;;;;4925506;29;20290;-62
2022/07/02 12:51:54;;;;;;;0.17;0.17;;;;;;;;;;4925352;29;20043;-62
2022/07/02 12:54:20;;;;;;;0.03;0.03;;;;;;;;;;4929032;29;20256;-61
2022/07/02 12:56:45;;;;;;;0.00;0.00;;;;;;;;;;4905730;29;20023;-63
2022/07/02 12:59:10;;;;;;;0.30;0.30;;;;;;;;;;4922951;29;20032;-62
2022/07/02 13:01:35;;;;;;;0.00;0.00;;;;;;;;;;4926638;29;20272;-63
2022/07/02 13:04:01;;;;;;;0.00;0.00;;;;;;;;;;4929435;29;20027;-61
2022/07/02 13:06:26;;;;;;;0.30;0.30;;;;;;;;;;4929370;29;20035;-61
2022/07/02 13:08:51;;;;;;;0.00;0.00;;;;;;;;;;4926931;29;20019;-61
2022/07/02 13:11:17;;;;;;;0.00;0.00;;;;;;;;;;4925613;29;20050;-61
2022/07/02 13:13:42;;;;;;;0.00;0.00;;;;;;;;;;4925061;29;20303;-61
2022/07/02 13:16:07;;;;;;;0.00;0.00;;;;;;;;;;4924439;29;20079;-61
2022/07/02 13:18:32;;;;;;;0.00;0.00;;;;;;;;;;4926890;29;20071;-62
2022/07/02 13:20:57;;;;;;;0.20;0.20;;;;;;;;;;4924267;29;20828;-60
2022/07/02 13:23:23;;;;;;;0.00;0.00;;;;;;;;;;4929594;29;20275;-60
2022/07/02 13:25:48;;;;;;;0.00;0.00;;;;;;;;;;4926745;29;20059;-60
2022/07/02 13:28:13;;;;;;;0.00;0.00;;;;;;;;;;4926372;29;20280;-60
2022/07/02 13:30:38;;;;;;;0.00;0.00;;;;;;;;;;4928866;29;20039;-60
2022/07/02 13:33:03;;;;;;;0.40;0.40;;;;;;;;;;4927735;29;20027;-61
2022/07/02 13:35:29;;;;;;;0.00;0.00;;;;;;;;;;4930766;29;20267;-61
2022/07/02 13:37:55;;;;;;;0.00;0.00;;;;;;;;;;4926353;29;20083;-61
2022/07/02 13:40:21;;;;;;;0.00;0.00;;;;;;;;;;4933498;29;20384;-60
2022/07/02 13:42:46;;;;;;;0.00;0.00;;;;;;;;;;4930610;29;20492;-60
2022/07/02 13:45:12;;;;;;;0.00;0.00;;;;;;;;;;4924475;29;20036;-62
2022/07/02 13:47:37;;;;;;;0.00;0.00;;;;;;;;;;4929251;29;20073;-60
2022/07/02 13:53:05;;;;;;;0.00;0.00;;;;;;;;;;4927110;29;20650;-61
2022/07/02 13:55:30;;;;;;;0.00;0.00;;;;;;;;;;4930544;29;20023;-61
2022/07/02 13:57:55;;;;;;;0.00;0.00;;;;;;;;;;4928844;29;20274;-61
2022/07/02 14:00:21;;;;;;;0.00;0.00;;;;;;;;;;4929756;29;20032;-60
2022/07/02 14:02:46;;;;;;;0.00;0.00;;;;;;;;;;4927491;29;20044;-61
2022/07/02 14:05:12;;;;;;;0.80;0.00;;;;;;;;;;4925920;29;20024;-61
2022/07/02 14:07:37;;;;;;;0.00;0.00;;;;;;;;;;4930408;29;20020;-60
2022/07/02 14:10:03;;;;;;;0.00;0.00;;;;;;;;;;4927838;29;20354;-60
2022/07/02 14:12:29;;;;;;;1.00;0.98;;;;;;;;;;4925108;29;20524;-60
2022/07/02 14:14:54;;;;;;;0.00;0.00;;;;;;;;;;4929182;29;20137;-60
2022/07/02 14:17:19;;;;;;;0.00;0.00;;;;;;;;;;4927115;29;20032;-60
2022/07/02 14:19:45;;;;;;;0.00;0.00;;;;;;;;;;4925168;29;20099;-61
2022/07/02 14:22:14;;;;;;;1.02;0.55;;;;;;;;;;4926855;29;20031;-60
2022/07/02 14:24:40;;;;;;;0.00;0.00;;;;;;;;;;4926383;29;20095;-60
2022/07/02 14:27:05;;;;;;;2.17;2.10;;;;;;;;;;4925938;29;20027;-60
2022/07/02 14:29:30;;;;;;;0.07;0.07;;;;;;;;;;4928905;29;20044;-60
2022/07/02 14:31:56;;;;;;;0.00;0.00;;;;;;;;;;4928105;29;20300;-60
2022/07/02 14:34:21;;;;;;;0.15;0.10;;;;;;;;;;4927153;29;20263;-60
2022/07/02 14:36:47;;;;;;;0.38;0.38;;;;;;;;;;4926511;29;20789;-60
2022/07/02 14:39:12;;;;;;;0.00;0.00;;;;;;;;;;4926753;29;20481;-60
2022/07/02 14:41:37;;;;;;;1.67;0.20;;;;;;;;;;4927000;29;20058;-59
2022/07/02 14:44:03;;;;;;;0.00;0.00;;;;;;;;;;4921883;29;20064;-60
2022/07/02 14:46:31;;;;;;;0.00;0.00;;;;;;;;;;4926330;29;20024;-60
2022/07/02 14:49:00;;;;;;;0.00;0.00;;;;;;;;;;4910186;29;20035;-61